Burrville, Utah
Current Conditions -  °F | °C
As of 3:35 PM on Wednesday 22 Oct 2014 (Local Time) from KHVE Reporting Station
Clear Clear  
Wind Chill: 72°   Ceiling: Unl
Heat Index: 72°   Visibility: 10mi
Dew Point: 34°   Wind: 5mph
Humidity: 25%   Direction: 110°ESE
Pressure: 30.09"   Gusts: NA
Location:  38.7083°N, 111.729°W
Report Text: KHVE 222135Z AUTO 11004KT 10SM CLR 22/01 A3009 RMK AO2
Loading
Personal Weather Stations






























Interactive Weather Map
Tropical Storm Tracking
New forecast layout! Learn more

10-Day Weather Forecast

Advertisements
Track Severe Weather on mobile